Summit, South Dakota
Current Conditions -  °F | °C
As of 4:53 PM on Friday 19 Dec 2014 (Local Time) from KATY Reporting Station
Haze Haze  
Wind Chill: 17°   Ceiling: 300
Heat Index: 28°   Visibility: 5mi
Dew Point: 27°   Wind: 14mph
Humidity: 96%   Direction: 180°S
Pressure: 30.02"   Gusts: NA
Location:  45.3°N, 97.04°W
Report Text: KATY 192253Z AUTO 18012KT 5SM BR OVC003 M02/M03 A3002 RMK AO2 SLP189 T10221028
Loading
Personal Weather Stations






























Interactive Weather Map New forecast layout! Learn more

10-Day Weather Forecast

Advertisements
Track Severe Weather on mobile